OIBA  Abumusa Island Airport

Add Bookmark

Iran

Status IATA
Operational AEU
Latitude Longitude
25° 52' 32" N 55° 1' 58" E
25.875700 55.033001
Local (DST + 5) UTC (GMT + 4)
Jul 25, 2014 10:09 Jul 25, 2014 17:39
Sunrise-Sunset Local UTC
Begin Civil Twilight 05:46 01:16
Sunrise 06:11 01:41
Sunset 07:41 15:11
End Civil Twilight 08:06 15:36

Current Weather

METAR Observed IFR
OIBA 251500Z 27006KT 4000 HZ NSC 34/29 Q0994 Fri, Jul 25, 2014 @ 15:00 UTC
(2 Hours, 39 Minutes ago)
Instrument Flight Rules

Decoded METAR

Wind Visibility Clouds Conditions
270° at 6 knots (11 kph) 4000 meters
  • Clear skies
  • Haze
Temperatures Readings Precipitation
Current Temp 34°C (93°F)
Dewpoint 29°C (84°F)
Heat Index 49°C (120°F)
Humidity 75%
Altimeter 29.35"Hg
Sea Level Pressure 994mb
Field Elevation 22.97'
None Recorded

Additional weather within a 92.6km radius of OIBA

Map ICAO Location
OIBS 49.4km W (274°)
OIBL 75.7km N (344°)
OMDB 76.9km S (154°)
OMSJ 77.8km S (141°)

24 Hour Weather History

Loading
-

24 Hour Weather Graphs

Loading
-

CheckWX.com is intended as a tool to help pilots better visualize weather data. It is not intended as a substitute for an official weather briefing obtained from a Flight Service Station. CheckWX.com does not meet the FAA requirements for an official pre-flight weather briefing. Therefore, it's important that pilots still call and obtain an official FSS pre-flight weather briefing.